Time;durP1;ratioP1;P1;durP2;ratioP2;P2;SDS_P1;SDS_P2;PMS_P1;PMS_P2;Temp;Humidity;BMP_temperature;BMP_pressure;BME280_temperature;BME280_humidity;BME280_pressure;Samples;Min_cycle;Max_cycle;Signal;HPM_P1;HPM_P2
2021/04/26 00:00:30;;;;;;;1999.90;999.90;;;6.30;99.90;;;;;;5018775;28;20173;-84
2021/04/26 00:02:58;;;;;;;1999.90;999.90;;;6.20;99.90;;;;;;5018275;28;20198;-84
2021/04/26 00:05:25;;;;;;;1999.90;999.90;;;6.10;99.90;;;;;;5018149;28;20561;-84
2021/04/26 00:07:51;;;;;;;1999.90;999.90;;;6.10;99.90;;;;;;5016656;28;20186;-84
2021/04/26 00:10:17;;;;;;;1999.90;999.90;;;6.00;99.90;;;;;;5018424;28;20199;-84
2021/04/26 00:12:43;;;;;;;1999.90;999.90;;;6.00;99.90;;;;;;5018129;28;20170;-84
2021/04/26 00:15:14;;;;;;;1999.90;999.90;;;5.90;99.90;;;;;;5018612;28;20197;-84
2021/04/26 00:17:40;;;;;;;1999.90;999.90;;;6.00;99.90;;;;;;5018473;28;20185;-84
2021/04/26 00:20:11;;;;;;;1999.90;999.90;;;6.00;99.90;;;;;;5018029;28;20173;-84
2021/04/26 00:22:36;;;;;;;1999.90;999.90;;;5.90;99.90;;;;;;5017931;28;20209;-84
2021/04/26 00:25:06;;;;;;;1999.90;999.90;;;5.90;99.90;;;;;;5018112;28;20208;-84
2021/04/26 00:27:32;;;;;;;1999.90;999.90;;;5.80;99.90;;;;;;5017412;28;20449;-84
2021/04/26 00:29:57;;;;;;;1999.90;999.90;;;5.80;99.90;;;;;;5018061;28;20534;-84
2021/04/26 00:32:23;;;;;;;1999.90;999.90;;;5.80;99.90;;;;;;5018477;28;20220;-84
2021/04/26 00:34:49;;;;;;;1999.90;999.90;;;5.80;99.90;;;;;;5018324;28;20174;-84
2021/04/26 00:37:14;;;;;;;1999.90;999.90;;;5.80;99.90;;;;;;5016265;28;20194;-84
2021/04/26 00:39:40;;;;;;;1999.90;999.90;;;5.70;99.90;;;;;;5017436;28;20166;-84
2021/04/26 00:42:06;;;;;;;1999.90;999.90;;;5.60;99.90;;;;;;5017245;28;20170;-84
2021/04/26 00:44:32;;;;;;;1999.90;999.90;;;5.50;99.90;;;;;;5017044;28;20656;-84
2021/04/26 00:46:57;;;;;;;1999.90;999.90;;;5.50;99.90;;;;;;5017703;28;20213;-84
2021/04/26 00:49:23;;;;;;;1999.90;999.90;;;5.50;99.90;;;;;;5017612;28;20220;-84
2021/04/26 00:51:49;;;;;;;1999.90;999.90;;;5.30;99.90;;;;;;5017893;28;20177;-84
2021/04/26 00:54:15;;;;;;;1999.90;999.90;;;5.30;99.90;;;;;;5017259;28;20173;-84
2021/04/26 00:56:41;;;;;;;1999.90;999.90;;;5.30;99.90;;;;;;5016723;28;20872;-84
2021/04/26 00:59:08;;;;;;;1999.90;999.90;;;5.20;99.90;;;;;;5021427;28;20157;-84
2021/04/26 01:01:33;;;;;;;1999.90;999.90;;;5.20;99.90;;;;;;5021694;28;20565;-84
2021/04/26 01:03:59;;;;;;;1999.90;999.90;;;5.20;99.90;;;;;;5020997;28;20212;-84
2021/04/26 01:06:25;;;;;;;1999.90;999.90;;;5.10;99.90;;;;;;5021152;28;20146;-84
2021/04/26 01:08:50;;;;;;;1999.90;999.90;;;5.10;99.90;;;;;;5019661;28;20166;-84
2021/04/26 01:11:16;;;;;;;1999.90;999.90;;;5.10;99.90;;;;;;5021388;28;20166;-84
2021/04/26 01:13:45;;;;;;;1999.90;999.90;;;5.10;99.90;;;;;;5019557;28;20197;-84
2021/04/26 01:16:21;;;;;;;1999.90;999.90;;;4.90;99.90;;;;;;5021026;28;20192;-84
2021/04/26 01:19:02;;;;;;;1999.90;999.90;;;4.90;99.90;;;;;;5020924;28;20560;-84
2021/04/26 01:22:06;;;;;;;1999.90;999.90;;;4.80;99.90;;;;;;5019703;28;20162;-84
2021/04/26 01:25:05;;;;;;;1999.90;999.90;;;4.80;99.90;;;;;;5014968;28;20185;-84
2021/04/26 01:27:46;;;;;;;1999.90;999.90;;;4.70;99.90;;;;;;5020418;28;20393;-84
2021/04/26 01:30:30;;;;;;;1999.90;999.90;;;4.70;99.90;;;;;;5020143;28;20170;-84
2021/04/26 01:32:58;;;;;;;1999.90;999.90;;;4.70;99.90;;;;;;5020659;28;20683;-84
2021/04/26 01:35:25;;;;;;;1999.90;999.90;;;4.70;99.90;;;;;;5019983;28;20166;-84
2021/04/26 01:38:20;;;;;;;1999.90;999.90;;;4.70;99.90;;;;;;5020729;28;20668;-84
2021/04/26 01:40:49;;;;;;;1999.90;999.90;;;4.60;99.90;;;;;;5019965;28;20521;-84
2021/04/26 01:43:18;;;;;;;1999.90;999.90;;;4.50;99.90;;;;;;5018312;28;20204;-84
2021/04/26 01:45:45;;;;;;;1999.90;999.90;;;4.50;99.90;;;;;;5019971;28;20230;-84
2021/04/26 01:48:11;;;;;;;1999.90;999.90;;;4.40;99.90;;;;;;5021034;28;20193;-84
2021/04/26 01:50:37;;;;;;;1999.90;999.90;;;4.30;99.90;;;;;;5018824;28;20205;-84
2021/04/26 01:53:04;;;;;;;1999.90;999.90;;;4.30;99.90;;;;;;5020278;28;20291;-84
2021/04/26 01:55:30;;;;;;;1999.90;999.90;;;4.30;99.90;;;;;;5020378;28;20185;-83
2021/04/26 01:58:00;;;;;;;1999.90;999.90;;;4.20;99.90;;;;;;5019731;28;20683;-84
2021/04/26 02:00:30;;;;;;;1999.90;999.90;;;4.20;99.90;;;;;;5019419;28;20158;-84
2021/04/26 02:02:56;;;;;;;1999.90;999.90;;;4.20;99.90;;;;;;5020566;28;20228;-84
2021/04/26 02:05:25;;;;;;;1999.90;999.90;;;4.10;99.90;;;;;;5088983;23;20307;-87
2021/04/26 02:07:52;;;;;;;1999.90;999.90;;;4.10;99.90;;;;;;5023821;28;20186;-87
2021/04/26 02:10:24;;;;;;;1999.90;999.90;;;4.20;99.90;;;;;;5022281;28;20162;-87
2021/04/26 02:12:54;;;;;;;1999.90;999.90;;;4.20;99.90;;;;;;5023129;28;20166;-87
2021/04/26 02:15:21;;;;;;;1999.90;999.90;;;4.10;99.90;;;;;;5024590;28;20233;-88
2021/04/26 02:17:47;;;;;;;1999.90;999.90;;;4.00;99.90;;;;;;5022052;28;20665;-87
2021/04/26 02:20:31;;;;;;;1999.90;999.90;;;4.00;99.90;;;;;;5024139;28;20610;-87
2021/04/26 02:22:59;;;;;;;1999.90;999.90;;;3.90;99.90;;;;;;5022654;28;20225;-87
2021/04/26 02:25:28;;;;;;;1999.90;999.90;;;3.90;99.90;;;;;;5022678;28;20173;-87
2021/04/26 02:27:54;;;;;;;1999.90;999.90;;;3.80;99.90;;;;;;5023709;28;20246;-87
2021/04/26 02:30:20;;;;;;;1999.90;999.90;;;3.80;99.90;;;;;;5024019;28;20189;-87
2021/04/26 02:33:12;;;;;;;1999.90;999.90;;;3.80;99.90;;;;;;5021460;28;20942;-87
2021/04/26 02:35:53;;;;;;;1999.90;999.90;;;3.70;99.90;;;;;;5017591;28;20193;-86
2021/04/26 02:38:28;;;;;;;1999.90;999.90;;;3.70;99.90;;;;;;5021973;28;20224;-86
2021/04/26 02:41:31;;;;;;;1999.90;999.90;;;3.70;99.90;;;;;;5022108;28;20158;-87
2021/04/26 02:44:13;;;;;;;1999.90;999.90;;;3.60;99.90;;;;;;5018763;28;20744;-87
2021/04/26 02:46:41;;;;;;;1999.90;999.90;;;3.60;99.90;;;;;;5021504;28;20190;-86
2021/04/26 02:49:14;;;;;;;1999.90;999.90;;;3.60;99.90;;;;;;5021168;28;20181;-87
2021/04/26 02:51:45;;;;;;;1999.90;999.90;;;3.50;99.90;;;;;;5020650;28;20170;-87
2021/04/26 02:54:16;;;;;;;1999.90;999.90;;;3.50;99.90;;;;;;5020658;28;20212;-86
2021/04/26 02:56:45;;;;;;;1999.90;999.90;;;3.40;99.90;;;;;;5020804;28;20522;-86
2021/04/26 02:59:20;;;;;;;1999.90;999.90;;;3.40;99.90;;;;;;5021369;28;20625;-86
2021/04/26 03:01:59;;;;;;;1999.90;999.90;;;3.40;99.90;;;;;;5020117;28;20177;-87
2021/04/26 03:04:29;;;;;;;1999.90;999.90;;;3.40;99.90;;;;;;5017685;28;20186;-86
2021/04/26 03:07:05;;;;;;;1999.90;999.90;;;3.40;99.90;;;;;;5021206;28;20177;-86
2021/04/26 03:09:34;;;;;;;1999.90;999.90;;;3.40;99.90;;;;;;5020758;28;20173;-86
2021/04/26 03:12:03;;;;;;;1999.90;999.90;;;3.30;99.90;;;;;;5019959;28;20181;-87
2021/04/26 03:14:29;;;;;;;1999.90;999.90;;;3.30;99.90;;;;;;5020491;28;20174;-87
2021/04/26 03:16:57;;;;;;;1999.90;999.90;;;3.20;99.90;;;;;;5020691;28;20192;-86
2021/04/26 03:19:26;;;;;;;1999.90;999.90;;;3.20;99.90;;;;;;5021392;28;20170;-86
2021/04/26 03:21:54;;;;;;;1999.90;999.90;;;3.30;99.90;;;;;;5022363;28;20212;-87
2021/04/26 03:24:20;;;;;;;1999.90;999.90;;;3.30;99.90;;;;;;5022245;28;20174;-87
2021/04/26 03:26:52;;;;;;;1999.90;999.90;;;3.30;99.90;;;;;;5020424;28;20196;-87
2021/04/26 03:29:21;;;;;;;1999.90;999.90;;;3.30;99.90;;;;;;5021614;28;20945;-87
2021/04/26 03:31:51;;;;;;;1999.90;999.90;;;3.30;99.90;;;;;;5021370;28;20260;-87
2021/04/26 03:34:17;;;;;;;1999.90;999.90;;;3.20;99.90;;;;;;5021955;28;20664;-88
2021/04/26 03:36:44;;;;;;;1999.90;999.90;;;3.20;99.90;;;;;;5021385;28;20205;-87
2021/04/26 03:39:17;;;;;;;1999.90;999.90;;;3.10;99.90;;;;;;5020866;28;20300;-87
2021/04/26 03:41:45;;;;;;;1999.90;999.90;;;3.10;99.90;;;;;;5020986;28;20177;-87
2021/04/26 03:44:16;;;;;;;1999.90;999.90;;;3.10;99.90;;;;;;5021404;28;20182;-87
2021/04/26 03:46:59;;;;;;;1999.90;999.90;;;3.10;99.90;;;;;;5020270;28;20197;-87
2021/04/26 03:49:26;;;;;;;1999.90;999.90;;;3.10;99.90;;;;;;5021474;28;20213;-87
2021/04/26 03:51:53;;;;;;;1999.90;999.90;;;3.00;99.90;;;;;;5021500;28;20173;-87
2021/04/26 03:54:22;;;;;;;1999.90;999.90;;;3.00;99.90;;;;;;5020421;28;20166;-87
2021/04/26 03:56:47;;;;;;;1999.90;999.90;;;2.90;99.90;;;;;;5021438;28;20249;-87
2021/04/26 03:59:14;;;;;;;1999.90;999.90;;;3.00;99.90;;;;;;5021652;28;20649;-87
2021/04/26 04:01:40;;;;;;;1999.90;999.90;;;2.90;99.90;;;;;;5021297;28;20765;-87
2021/04/26 04:04:07;;;;;;;1999.90;999.90;;;2.90;99.90;;;;;;5018831;28;20669;-87
2021/04/26 04:06:36;;;;;;;1999.90;999.90;;;2.90;99.90;;;;;;5019954;28;20185;-87
2021/04/26 04:09:06;;;;;;;1999.90;999.90;;;2.80;99.90;;;;;;5021487;28;20158;-87
2021/04/26 04:11:33;;;;;;;1999.90;999.90;;;2.80;99.90;;;;;;5019706;28;20268;-87
2021/04/26 04:14:02;;;;;;;1999.90;999.90;;;2.80;99.90;;;;;;5019851;28;20165;-87
2021/04/26 04:16:28;;;;;;;1999.90;999.90;;;2.80;99.90;;;;;;5019122;28;20189;-86
2021/04/26 04:18:54;;;;;;;1999.90;999.90;;;2.80;99.90;;;;;;5018686;28;20549;-86
2021/04/26 04:21:20;;;;;;;1999.90;999.90;;;2.80;99.90;;;;;;5019430;28;20401;-87
2021/04/26 04:23:48;;;;;;;1999.90;999.90;;;2.80;99.90;;;;;;5018457;28;20201;-86
2021/04/26 04:26:14;;;;;;;1999.90;999.90;;;2.90;99.90;;;;;;5019837;28;20484;-86
2021/04/26 04:28:41;;;;;;;1999.90;999.90;;;2.90;99.90;;;;;;5019170;28;20248;-87
2021/04/26 04:31:09;;;;;;;1999.90;999.90;;;2.90;99.90;;;;;;5018668;28;20248;-86
2021/04/26 04:33:35;;;;;;;1999.90;999.90;;;2.90;99.90;;;;;;5019404;28;20166;-87
2021/04/26 04:36:01;;;;;;;1999.90;999.90;;;2.90;99.90;;;;;;5018550;28;20271;-87
2021/04/26 04:38:30;;;;;;;1999.90;999.90;;;2.90;99.90;;;;;;5018361;28;20428;-87
2021/04/26 04:41:05;;;;;;;1999.90;999.90;;;2.90;99.90;;;;;;5019556;28;20170;-87
2021/04/26 04:43:31;;;;;;;1999.90;999.90;;;3.00;99.90;;;;;;5019002;28;20651;-87
2021/04/26 04:45:57;;;;;;;1999.90;999.90;;;2.90;99.90;;;;;;5020444;28;20158;-87
2021/04/26 04:48:24;;;;;;;1999.90;999.90;;;3.10;99.90;;;;;;5020342;28;20192;-86
2021/04/26 04:50:50;;;;;;;1999.90;999.90;;;3.10;99.90;;;;;;5019276;28;20241;-87
2021/04/26 04:53:16;;;;;;;1999.90;999.90;;;3.10;99.90;;;;;;5019777;28;20291;-87
2021/04/26 04:55:45;;;;;;;1999.90;999.90;;;3.10;99.90;;;;;;5019754;28;20166;-87
2021/04/26 04:58:20;;;;;;;1999.90;999.90;;;3.00;99.90;;;;;;5018257;28;20679;-87
2021/04/26 05:00:46;;;;;;;1999.90;999.90;;;3.00;99.90;;;;;;5019632;28;20189;-87
2021/04/26 05:03:15;;;;;;;1999.90;999.90;;;2.90;99.90;;;;;;5020121;28;20198;-87
2021/04/26 05:05:41;;;;;;;1999.90;999.90;;;3.00;99.90;;;;;;5022698;28;20212;-87
2021/04/26 05:08:09;;;;;;;1999.90;999.90;;;3.10;99.90;;;;;;5021204;28;20181;-87
2021/04/26 05:10:35;;;;;;;1999.90;999.90;;;3.10;99.90;;;;;;5018994;28;20166;-87
2021/04/26 05:13:00;;;;;;;1999.90;999.90;;;3.20;99.90;;;;;;5020135;28;20200;-87
2021/04/26 05:15:30;;;;;;;1999.90;999.90;;;3.20;99.90;;;;;;5019430;28;20504;-87
2021/04/26 05:17:56;;;;;;;1999.90;999.90;;;3.20;99.90;;;;;;5020424;28;20498;-87
2021/04/26 05:20:31;;;;;;;1999.90;999.90;;;3.30;99.90;;;;;;5020699;28;20245;-87
2021/04/26 05:22:57;;;;;;;1999.90;999.90;;;3.30;99.90;;;;;;5021593;28;20542;-87
2021/04/26 05:25:22;;;;;;;1999.90;999.90;;;3.40;99.90;;;;;;5020967;28;20166;-87
2021/04/26 05:27:48;;;;;;;1999.90;999.90;;;3.50;99.90;;;;;;5019730;28;20429;-87
2021/04/26 05:30:24;;;;;;;1999.90;999.90;;;3.50;99.90;;;;;;5020402;28;20431;-87
2021/04/26 05:33:00;;;;;;;1999.90;999.90;;;3.60;99.90;;;;;;5021033;28;20412;-87
2021/04/26 05:35:31;;;;;;;1999.90;999.90;;;3.70;99.90;;;;;;5021351;28;20523;-87
2021/04/26 05:38:16;;;;;;;1999.90;999.90;;;4.00;99.90;;;;;;5021116;28;20188;-87
2021/04/26 05:40:49;;;;;;;1999.90;999.90;;;4.10;99.90;;;;;;5020298;28;20176;-87
2021/04/26 05:43:16;;;;;;;1999.90;999.90;;;4.30;99.90;;;;;;5021858;28;20663;-87
2021/04/26 05:45:53;;;;;;;1999.90;999.90;;;4.40;99.90;;;;;;5024562;28;20220;-87
2021/04/26 05:48:42;;;;;;;1999.90;999.90;;;4.60;99.90;;;;;;5023063;28;20189;-87
2021/04/26 05:51:08;;;;;;;1999.90;999.90;;;4.60;99.90;;;;;;5022676;28;20174;-87
2021/04/26 05:53:33;;;;;;;1999.90;999.90;;;4.70;99.90;;;;;;5027040;28;20233;-87
2021/04/26 05:55:59;;;;;;;1999.90;999.90;;;4.80;99.90;;;;;;5029127;28;20420;-85
2021/04/26 05:58:28;;;;;;;1999.90;999.90;;;4.90;99.90;;;;;;5026978;28;20514;-87
2021/04/26 06:00:54;;;;;;;1999.90;999.90;;;4.90;99.90;;;;;;5018535;28;20261;-87
2021/04/26 06:03:23;;;;;;;1999.90;999.90;;;5.10;99.90;;;;;;5018271;28;20205;-87
2021/04/26 06:05:52;;;;;;;1999.90;999.90;;;5.20;99.90;;;;;;5017767;28;20186;-87
2021/04/26 06:08:20;;;;;;;1999.90;999.90;;;5.10;99.90;;;;;;5017086;28;20197;-87
2021/04/26 06:10:46;;;;;;;1999.90;999.90;;;5.20;99.90;;;;;;5017052;28;20172;-86
2021/04/26 06:13:18;;;;;;;1999.90;999.90;;;5.20;99.90;;;;;;5017769;28;20177;-87
2021/04/26 06:15:44;;;;;;;1999.90;999.90;;;5.30;99.90;;;;;;5018134;28;20409;-87
2021/04/26 06:18:20;;;;;;;1999.90;999.90;;;5.40;99.90;;;;;;5018184;28;20194;-87
2021/04/26 06:20:50;;;;;;;1999.90;999.90;;;5.50;99.90;;;;;;5018637;28;20169;-87
2021/04/26 06:23:17;;;;;;;1999.90;999.90;;;5.50;99.90;;;;;;5018298;28;20194;-86
2021/04/26 06:25:43;;;;;;;1999.90;999.90;;;5.60;99.90;;;;;;5017399;28;20177;-87
2021/04/26 06:28:11;;;;;;;1999.90;999.90;;;5.80;99.90;;;;;;5018758;28;20177;-87
2021/04/26 06:30:41;;;;;;;1999.90;999.90;;;5.90;99.90;;;;;;5016641;28;20645;-86
2021/04/26 06:33:09;;;;;;;1999.90;999.90;;;6.00;99.90;;;;;;5016804;28;20208;-86
2021/04/26 06:36:01;;;;;;;1999.90;999.90;;;6.10;99.90;;;;;;5016118;28;20205;-87
2021/04/26 06:38:37;;;;;;;1999.90;999.90;;;6.20;99.90;;;;;;4978953;28;20201;-87
2021/04/26 06:41:24;;;;;;;1999.90;999.90;;;6.20;99.90;;;;;;5016608;28;20181;-86
2021/04/26 06:44:05;;;;;;;1999.90;999.90;;;6.30;98.80;;;;;;5018778;28;20196;-87
2021/04/26 06:46:37;;;;;;;1999.90;999.90;;;6.30;99.90;;;;;;5024366;28;20495;-87
2021/04/26 06:49:15;;;;;;;1999.90;999.90;;;6.40;99.90;;;;;;5019498;28;20254;-88
2021/04/26 06:52:46;;;;;;;1999.90;999.90;;;6.50;98.30;;;;;;5020049;28;20197;-85
2021/04/26 06:54:59;;;;;;;1999.90;999.90;;;6.50;93.90;;;;;;4958402;28;20176;-85
2021/04/26 06:58:06;;;;;;;1999.90;999.90;;;6.60;96.10;;;;;;5019718;28;20198;-85
2021/04/26 07:01:13;;;;;;;1999.90;999.90;;;6.80;97.20;;;;;;5017998;28;20688;-86
2021/04/26 07:04:00;;;;;;;1999.90;999.90;;;6.80;93.70;;;;;;5008735;28;20201;-86
2021/04/26 07:06:49;;;;;;;1999.90;999.90;;;6.90;95.00;;;;;;5015909;28;20174;-86
2021/04/26 07:09:38;;;;;;;1999.90;999.90;;;7.00;93.90;;;;;;5016678;28;20174;-86
2021/04/26 07:12:33;;;;;;;1999.90;999.90;;;7.10;90.30;;;;;;5015789;28;20511;-86
2021/04/26 07:15:22;;;;;;;1999.90;999.90;;;7.20;81.90;;;;;;5014889;28;20166;-85
2021/04/26 07:18:16;;;;;;;1999.90;999.90;;;7.20;80.50;;;;;;5015691;28;20561;-86
2021/04/26 07:20:46;;;;;;;1999.90;999.90;;;7.40;76.00;;;;;;5014796;28;20177;-85
2021/04/26 07:23:49;;;;;;;1999.90;999.90;;;7.60;58.90;;;;;;5015971;28;20190;-86
2021/04/26 07:26:20;;;;;;;1999.90;999.90;;;7.60;64.10;;;;;;5005781;28;20188;-86
2021/04/26 07:28:46;;;;;;;1999.90;999.90;;;7.70;59.40;;;;;;5015484;28;20233;-85
2021/04/26 07:31:38;;;;;;;1999.90;999.90;;;7.80;70.90;;;;;;5013837;28;20261;-85
2021/04/26 07:34:09;;;;;;;1999.90;999.90;;;7.80;59.20;;;;;;5013526;28;20934;-85
2021/04/26 07:36:45;;;;;;;1999.90;999.90;;;7.90;54.10;;;;;;5014886;28;20174;-85
2021/04/26 07:39:11;;;;;;;1999.90;999.90;;;8.00;64.60;;;;;;5015992;28;20521;-85
2021/04/26 07:41:40;;;;;;;1999.90;999.90;;;8.00;61.50;;;;;;5015746;28;20170;-86
2021/04/26 07:44:09;;;;;;;1999.90;999.90;;;8.10;53.50;;;;;;5016156;28;20456;-86
2021/04/26 07:46:37;;;;;;;1999.90;999.90;;;8.20;46.30;;;;;;5015939;28;20166;-86
2021/04/26 07:49:12;;;;;;;1999.90;999.90;;;8.30;39.20;;;;;;5015606;28;20166;-85
2021/04/26 07:51:54;;;;;;;1999.90;999.90;;;8.30;36.60;;;;;;5016101;28;20157;-86
2021/04/26 07:54:20;;;;;;;1999.90;999.90;;;8.50;28.70;;;;;;5015080;28;20249;-86
2021/04/26 07:56:59;;;;;;;1999.90;999.90;;;8.60;29.30;;;;;;5014818;28;20248;-86
2021/04/26 07:59:42;;;;;;;1999.90;999.90;;;8.70;24.20;;;;;;5015499;28;20538;-86
2021/04/26 08:02:13;;;;;;;1999.90;999.90;;;8.70;11.00;;;;;;5015444;28;20231;-86
2021/04/26 08:04:51;;;;;;;1999.90;999.90;;;8.80;12.00;;;;;;5014684;28;20186;-85
2021/04/26 08:07:29;;;;;;;1999.90;999.90;;;9.00;10.50;;;;;;5015023;28;20663;-86
2021/04/26 08:10:18;;;;;;;1999.90;999.90;;;9.00;6.90;;;;;;5015953;28;20169;-86
2021/04/26 08:13:02;;;;;;;1999.90;999.90;;;9.00;2.90;;;;;;5016056;28;20174;-86
2021/04/26 08:19:09;;;;;;;1999.90;999.90;;;9.20;1.00;;;;;;5022029;28;20192;-87
2021/04/26 08:21:48;;;;;;;1999.90;999.90;;;9.30;1.80;;;;;;5020263;28;20181;-87
2021/04/26 08:24:39;;;;;;;1999.90;999.90;;;9.30;1.50;;;;;;5022987;28;20645;-87
2021/04/26 08:27:19;;;;;;;1999.90;999.90;;;9.30;1.00;;;;;;5022694;28;20200;-87
2021/04/26 08:30:39;;;;;;;1999.90;999.90;;;9.40;1.00;;;;;;5023474;28;20161;-87
2021/04/26 08:33:44;;;;;;;1999.90;999.90;;;9.50;1.00;;;;;;5009993;28;20224;-87
2021/04/26 08:36:34;;;;;;;1999.90;999.90;;;9.60;1.00;;;;;;5010200;28;20185;-87
2021/04/26 08:39:11;;;;;;;1999.90;999.90;;;9.60;1.00;;;;;;5022759;28;20174;-86
2021/04/26 08:42:04;;;;;;;1999.90;999.90;;;9.70;1.00;;;;;;5019495;28;20188;-87
2021/04/26 08:44:36;;;;;;;1999.90;999.90;;;9.70;1.00;;;;;;5021101;28;20170;-87
2021/04/26 08:47:11;;;;;;;1999.90;999.90;;;9.80;1.00;;;;;;5046093;23;20350;-86
2021/04/26 08:49:39;;;;;;;1999.90;999.90;;;9.90;1.00;;;;;;5023613;28;20157;-86
2021/04/26 08:52:09;;;;;;;1999.90;999.90;;;10.00;1.00;;;;;;5022526;28;20169;-87
2021/04/26 08:54:41;;;;;;;1999.90;999.90;;;10.00;1.00;;;;;;5003998;28;20253;-87
2021/04/26 09:00:08;;;;;;;1999.90;999.90;;;10.00;1.00;;;;;;5020185;28;20157;-88
2021/04/26 09:02:56;;;;;;;1999.90;999.90;;;9.90;1.00;;;;;;5021910;28;20228;-86
2021/04/26 09:05:33;;;;;;;1999.90;999.90;;;10.10;1.00;;;;;;5001888;28;20170;-85
2021/04/26 09:08:00;;;;;;;1999.90;999.90;;;10.30;1.00;;;;;;5000351;28;20181;-87
2021/04/26 09:10:54;;;;;;;1999.90;999.90;;;10.50;1.00;;;;;;5017546;28;20213;-86
2021/04/26 09:13:22;;;;;;;1999.90;999.90;;;10.50;1.00;;;;;;4998388;28;20182;-85
2021/04/26 09:15:53;;;;;;;1999.90;999.90;;;10.50;1.00;;;;;;5017010;28;20176;-86
2021/04/26 09:18:19;;;;;;;1999.90;999.90;;;10.60;1.00;;;;;;5019416;28;20305;-86
2021/04/26 09:20:48;;;;;;;1999.90;999.90;;;10.70;1.00;;;;;;5020941;28;20539;-87
2021/04/26 09:23:20;;;;;;;1999.90;999.90;;;10.60;1.00;;;;;;5002250;28;20189;-86
2021/04/26 09:25:46;;;;;;;1999.90;999.90;;;10.60;1.00;;;;;;5020469;28;20166;-86
2021/04/26 09:28:38;;;;;;;1999.90;999.90;;;10.70;1.00;;;;;;5002260;28;20243;-86
2021/04/26 09:31:04;;;;;;;1999.90;999.90;;;10.90;1.00;;;;;;5019890;28;20146;-86
2021/04/26 09:33:37;;;;;;;1999.90;999.90;;;10.90;1.00;;;;;;5002231;28;20177;-84
2021/04/26 09:38:48;;;;;;;1999.90;999.90;;;11.20;1.00;;;;;;5019825;28;20649;-86
2021/04/26 09:41:26;;;;;;;1999.90;999.90;;;11.20;1.00;;;;;;5002345;28;20672;-85
2021/04/26 09:44:10;;;;;;;1999.90;999.90;;;11.30;1.00;;;;;;5003327;28;20224;-86
2021/04/26 09:46:48;;;;;;;1999.90;999.90;;;11.40;1.00;;;;;;5001642;28;20161;-86
2021/04/26 09:49:22;;;;;;;1999.90;999.90;;;11.60;1.00;;;;;;5000802;28;20181;-87
2021/04/26 09:52:18;;;;;;;1999.90;999.90;;;11.70;1.00;;;;;;5019947;28;20153;-87
2021/04/26 09:54:44;;;;;;;1999.90;999.90;;;11.70;1.00;;;;;;4999677;28;20174;-87
2021/04/26 09:57:32;;;;;;;1999.90;999.90;;;11.90;1.00;;;;;;5027312;28;20768;-87
2021/04/26 09:59:59;;;;;;;1999.90;999.90;;;11.90;1.00;;;;;;5004206;28;20641;-88
2021/04/26 10:05:56;;;;;;;1999.90;999.90;;;12.20;1.00;;;;;;4983378;28;20213;-87
2021/04/26 10:08:46;;;;;;;1999.90;999.90;;;12.50;1.00;;;;;;4982636;28;20202;-87
2021/04/26 10:11:19;;;;;;;1999.90;999.90;;;12.70;1.00;;;;;;4985586;28;20174;-87
2021/04/26 10:14:18;;;;;;;1999.90;999.90;;;12.70;1.00;;;;;;4985075;28;20249;-85
2021/04/26 10:16:54;;;;;;;1999.90;999.90;;;12.70;1.00;;;;;;4989792;28;20260;-88
2021/04/26 10:19:30;;;;;;;1999.90;999.90;;;12.80;1.00;;;;;;5022656;28;20213;-87
2021/04/26 10:25:16;;;;;;;1999.90;999.90;;;13.50;1.00;;;;;;4997887;28;20212;-87
2021/04/26 10:27:51;;;;;;;1999.90;999.90;;;13.60;1.00;;;;;;5114696;23;20217;-87
2021/04/26 10:30:24;;;;;;;1999.90;999.90;;;13.30;1.00;;;;;;5037315;28;20175;-86
2021/04/26 10:33:00;;;;;;;1999.90;999.90;;;13.30;1.00;;;;;;5035513;28;20165;-87
2021/04/26 10:35:50;;;;;;;1999.90;999.90;;;13.60;1.00;;;;;;5036313;28;20207;-86
2021/04/26 10:38:37;;;;;;;1999.90;999.90;;;14.20;1.00;;;;;;5036639;28;20734;-86
2021/04/26 10:41:44;;;;;;;1999.90;999.90;;;13.90;1.00;;;;;;5035280;28;20568;-85
2021/04/26 10:44:37;;;;;;;1999.90;999.90;;;13.70;1.00;;;;;;5035048;28;20201;-85
2021/04/26 10:47:22;;;;;;;1999.90;999.90;;;14.10;1.00;;;;;;5039390;28;20658;-84
2021/04/26 10:50:04;;;;;;;1999.90;999.90;;;14.00;1.00;;;;;;5043746;28;20247;-85
2021/04/26 10:52:33;;;;;;;1999.90;999.90;;;14.30;1.00;;;;;;5038902;28;20620;-87
2021/04/26 10:55:32;;;;;;;1999.90;999.90;;;14.80;1.00;;;;;;5036542;28;20176;-87
2021/04/26 10:58:20;;;;;;;1999.90;999.90;;;15.40;1.00;;;;;;5027889;23;20476;-87
2021/04/26 11:01:07;;;;;;;;;;;;;;;;;;;;;
2021/04/26 11:03:36;;;;;;;1999.90;999.90;;;15.90;1.00;;;;;;5016810;28;20444;-87
2021/04/26 11:06:13;;;;;;;1999.90;999.90;;;16.20;1.00;;;;;;5017883;28;20405;-85
2021/04/26 11:09:01;;;;;;;1999.90;999.90;;;15.50;1.00;;;;;;5018370;28;20423;-85
2021/04/26 11:11:53;;;;;;;1999.90;999.90;;;15.00;1.00;;;;;;5017829;28;20489;-86
2021/04/26 11:14:26;;;;;;;1999.90;999.90;;;14.60;1.00;;;;;;5017851;28;20473;-86
2021/04/26 11:17:02;;;;;;;1999.90;999.90;;;15.20;1.00;;;;;;5016707;28;20483;-86
2021/04/26 11:19:31;;;;;;;1999.90;999.90;;;14.90;1.00;;;;;;5016640;28;20799;-87
2021/04/26 11:21:59;;;;;;;1999.90;999.90;;;15.00;1.00;;;;;;5016852;28;20435;-87
2021/04/26 11:25:17;;;;;;;1999.90;999.90;;;14.90;1.00;;;;;;5017077;28;20454;-87
2021/04/26 11:27:55;;;;;;;1999.90;999.90;;;14.80;1.00;;;;;;5018237;28;20413;-86
2021/04/26 11:30:26;;;;;;;1999.90;999.90;;;15.30;1.00;;;;;;5018353;28;20400;-86
2021/04/26 11:34:33;;;;;;;1999.90;999.90;;;15.80;1.00;;;;;;5019506;28;20374;-85
2021/04/26 11:37:03;;;;;;;1999.90;999.90;;;16.40;1.00;;;;;;4974996;23;20435;-86
2021/04/26 11:39:48;;;;;;;1999.90;999.90;;;16.10;1.00;;;;;;5008483;28;20428;-87
2021/04/26 11:42:25;;;;;;;1999.90;999.90;;;16.60;1.00;;;;;;5001744;28;20389;-87
2021/04/26 11:44:54;;;;;;;1999.90;999.90;;;16.70;1.00;;;;;;5015959;28;20392;-87
2021/04/26 11:47:21;;;;;;;1999.90;999.90;;;16.80;1.00;;;;;;5000896;28;20435;-87
2021/04/26 11:49:53;;;;;;;1999.90;999.90;;;16.50;1.00;;;;;;5018214;28;20846;-87
2021/04/26 11:52:22;;;;;;;1999.90;999.90;;;16.50;1.00;;;;;;5018919;28;20383;-87
2021/04/26 11:55:02;;;;;;;1999.90;999.90;;;16.70;1.00;;;;;;4999174;28;20404;-87
2021/04/26 11:57:29;;;;;;;1999.90;999.90;;;16.50;1.00;;;;;;5017475;28;20956;-86
2021/04/26 12:00:00;;;;;;;1999.90;999.90;;;16.60;1.00;;;;;;5017929;28;20386;-86
2021/04/26 12:02:38;;;;;;;1999.90;999.90;;;16.50;1.00;;;;;;4997768;28;20414;-86
2021/04/26 12:05:14;;;;;;;1999.90;999.90;;;16.80;1.00;;;;;;4999411;28;20546;-87
2021/04/26 12:07:41;;;;;;;1999.90;999.90;;;16.80;1.00;;;;;;4997662;28;20844;-88
2021/04/26 12:10:13;;;;;;;1999.90;999.90;;;16.70;1.00;;;;;;4997051;28;20406;-87
2021/04/26 12:12:40;;;;;;;1999.90;999.90;;;16.90;1.00;;;;;;4997739;28;21024;-87
2021/04/26 12:15:20;;;;;;;1999.90;999.90;;;16.70;1.00;;;;;;4997395;28;20501;-87
2021/04/26 12:17:50;;;;;;;1999.90;999.90;;;16.50;1.00;;;;;;4997355;28;20437;-87
2021/04/26 12:20:44;;;;;;;1999.90;999.90;;;16.70;1.00;;;;;;4999114;28;20415;-87
2021/04/26 12:23:30;;;;;;;1999.90;999.90;;;17.10;1.00;;;;;;4997672;28;20521;-87
2021/04/26 12:25:59;;;;;;;1999.90;999.90;;;17.10;1.00;;;;;;5015601;28;20863;-87
2021/04/26 12:28:48;;;;;;;1999.90;999.90;;;17.00;1.00;;;;;;4998330;28;20446;-87
2021/04/26 12:31:25;;;;;;;1999.90;999.90;;;17.10;1.00;;;;;;4998662;28;20420;-86
2021/04/26 12:33:52;;;;;;;1999.90;999.90;;;16.90;1.00;;;;;;4998245;28;20994;-87
2021/04/26 12:36:25;;;;;;;1999.90;999.90;;;16.60;1.00;;;;;;5014768;28;20471;-89
2021/04/26 12:38:54;;;;;;;1999.90;999.90;;;16.90;1.00;;;;;;4997899;28;20504;-87
2021/04/26 12:41:20;;;;;;;1999.90;999.90;;;17.30;1.00;;;;;;5015532;28;20950;-87
2021/04/26 12:44:05;;;;;;;1999.90;999.90;;;17.60;1.00;;;;;;4998359;28;20451;-87
2021/04/26 12:46:49;;;;;;;1999.90;999.90;;;17.70;1.00;;;;;;5000222;28;20752;-87
2021/04/26 12:49:48;;;;;;;1999.90;999.90;;;16.90;1.00;;;;;;4999162;28;20401;-87
2021/04/26 12:52:33;;;;;;;1999.90;999.90;;;16.60;1.00;;;;;;4968398;28;20417;-87
2021/04/26 12:55:09;;;;;;;1999.90;999.90;;;16.90;1.00;;;;;;5004124;28;20439;-87
2021/04/26 12:57:41;;;;;;;1999.90;999.90;;;17.20;1.00;;;;;;5004435;28;20446;-86
2021/04/26 13:00:23;;;;;;;1999.90;999.90;;;17.20;1.00;;;;;;5002884;28;20421;-85
2021/04/26 13:02:49;;;;;;;1999.90;999.90;;;17.40;1.00;;;;;;5021276;28;20443;-86